sensor_id;sensor_type;location;lat;lon;timestamp;pressure;altitude;pressure_sealevel;temperature;humidity
55759;BME280;41678;52.126;20.664;2023-07-20T00:05:36;99572.59;;;17.77;55.48
55759;BME280;41678;52.126;20.664;2023-07-20T00:10:55;99571.13;;;17.71;55.93
55759;BME280;41678;52.126;20.664;2023-07-20T00:16:16;99573.69;;;17.73;55.52
55759;BME280;41678;52.126;20.664;2023-07-20T00:21:35;99567.41;;;17.74;55.68
55759;BME280;41678;52.126;20.664;2023-07-20T00:26:55;99570.06;;;17.74;56.36
55759;BME280;41678;52.126;20.664;2023-07-20T00:32:15;99566.91;;;17.67;56.46
55759;BME280;41678;52.126;20.664;2023-07-20T00:37:34;99560.22;;;17.58;57.07
55759;BME280;41678;52.126;20.664;2023-07-20T00:42:53;99571.91;;;17.55;57.27
55759;BME280;41678;52.126;20.664;2023-07-20T00:48:17;99570.50;;;17.48;56.84
55759;BME280;41678;52.126;20.664;2023-07-20T00:53:37;99573.25;;;17.47;56.73
55759;BME280;41678;52.126;20.664;2023-07-20T00:58:57;99571.69;;;17.42;56.54
55759;BME280;41678;52.126;20.664;2023-07-20T01:04:17;99566.53;;;17.39;56.41
55759;BME280;41678;52.126;20.664;2023-07-20T01:09:42;99566.63;;;17.38;56.38
55759;BME280;41678;52.126;20.664;2023-07-20T01:15:03;99559.56;;;17.37;56.69
55759;BME280;41678;52.126;20.664;2023-07-20T01:20:23;99559.72;;;17.34;56.82
55759;BME280;41678;52.126;20.664;2023-07-20T01:31:27;99561.03;;;17.25;57.39
55759;BME280;41678;52.126;20.664;2023-07-20T01:36:48;99567.47;;;17.21;57.77
55759;BME280;41678;52.126;20.664;2023-07-20T01:42:10;99574.66;;;17.19;58.44
55759;BME280;41678;52.126;20.664;2023-07-20T01:47:29;99585.53;;;17.14;57.92
55759;BME280;41678;52.126;20.664;2023-07-20T01:52:49;99571.84;;;17.04;58.84
55759;BME280;41678;52.126;20.664;2023-07-20T01:58:08;99571.56;;;16.91;58.42
55759;BME280;41678;52.126;20.664;2023-07-20T02:03:29;99561.31;;;16.83;58.17
55759;BME280;41678;52.126;20.664;2023-07-20T02:08:48;99568.72;;;16.77;58.03
55759;BME280;41678;52.126;20.664;2023-07-20T02:14:08;99580.19;;;16.77;58.25
55759;BME280;41678;52.126;20.664;2023-07-20T02:19:28;99581.91;;;16.78;58.10
55759;BME280;41678;52.126;20.664;2023-07-20T02:24:47;99572.59;;;16.69;58.10
55759;BME280;41678;52.126;20.664;2023-07-20T02:30:07;99562.03;;;16.68;57.62
55759;BME280;41678;52.126;20.664;2023-07-20T02:35:28;99572.66;;;16.68;58.49
55759;BME280;41678;52.126;20.664;2023-07-20T02:40:48;99577.19;;;16.66;58.68
55759;BME280;41678;52.126;20.664;2023-07-20T02:46:07;99573.31;;;16.73;58.83
55759;BME280;41678;52.126;20.664;2023-07-20T02:51:27;99576.75;;;16.75;58.92
55759;BME280;41678;52.126;20.664;2023-07-20T02:56:47;99575.81;;;16.76;59.04
55759;BME280;41678;52.126;20.664;2023-07-20T03:02:06;99583.94;;;16.73;58.97
55759;BME280;41678;52.126;20.664;2023-07-20T03:07:29;99579.84;;;16.66;59.38
55759;BME280;41678;52.126;20.664;2023-07-20T03:12:49;99572.03;;;16.63;59.00
55759;BME280;41678;52.126;20.664;2023-07-20T03:18:09;99582.59;;;16.64;58.89
55759;BME280;41678;52.126;20.664;2023-07-20T03:23:28;99596.59;;;16.68;59.28
55759;BME280;41678;52.126;20.664;2023-07-20T03:28:48;99609.59;;;16.74;59.55
55759;BME280;41678;52.126;20.664;2023-07-20T03:34:08;99613.97;;;16.75;60.03
55759;BME280;41678;52.126;20.664;2023-07-20T03:39:29;99613.34;;;16.70;60.67
55759;BME280;41678;52.126;20.664;2023-07-20T03:44:50;99645.88;;;16.75;60.22
55759;BME280;41678;52.126;20.664;2023-07-20T03:50:10;99661.97;;;16.72;60.88
55759;BME280;41678;52.126;20.664;2023-07-20T03:55:30;99662.03;;;16.70;61.73
55759;BME280;41678;52.126;20.664;2023-07-20T04:00:50;99685.81;;;16.74;62.07
55759;BME280;41678;52.126;20.664;2023-07-20T04:06:10;99693.13;;;16.68;61.55
55759;BME280;41678;52.126;20.664;2023-07-20T04:11:30;99687.97;;;16.65;61.57
55759;BME280;41678;52.126;20.664;2023-07-20T04:16:50;99706.44;;;16.68;62.27
55759;BME280;41678;52.126;20.664;2023-07-20T04:22:10;99706.94;;;16.57;62.33
55759;BME280;41678;52.126;20.664;2023-07-20T04:27:30;99701.75;;;16.54;62.61
55759;BME280;41678;52.126;20.664;2023-07-20T04:32:51;99721.28;;;16.53;62.62
55759;BME280;41678;52.126;20.664;2023-07-20T04:38:11;99709.94;;;16.50;62.78
55759;BME280;41678;52.126;20.664;2023-07-20T04:43:31;99701.25;;;16.46;62.58
55759;BME280;41678;52.126;20.664;2023-07-20T04:48:51;99702.16;;;16.45;62.64
55759;BME280;41678;52.126;20.664;2023-07-20T04:54:11;99712.50;;;16.51;63.05
55759;BME280;41678;52.126;20.664;2023-07-20T04:59:32;99707.06;;;16.54;63.69
55759;BME280;41678;52.126;20.664;2023-07-20T05:04:52;99710.00;;;16.48;63.14
55759;BME280;41678;52.126;20.664;2023-07-20T05:10:12;99710.94;;;16.47;62.80
55759;BME280;41678;52.126;20.664;2023-07-20T05:15:35;99714.38;;;16.49;62.54
55759;BME280;41678;52.126;20.664;2023-07-20T05:20:56;99716.78;;;16.55;63.03
55759;BME280;41678;52.126;20.664;2023-07-20T05:26:16;99707.91;;;16.55;62.92
55759;BME280;41678;52.126;20.664;2023-07-20T05:31:35;99703.19;;;16.62;63.30
55759;BME280;41678;52.126;20.664;2023-07-20T05:36:55;99707.56;;;16.63;63.64
55759;BME280;41678;52.126;20.664;2023-07-20T05:42:14;99701.63;;;16.57;64.04
55759;BME280;41678;52.126;20.664;2023-07-20T05:47:34;99692.72;;;16.59;63.46
55759;BME280;41678;52.126;20.664;2023-07-20T05:52:54;99698.03;;;16.59;63.49
55759;BME280;41678;52.126;20.664;2023-07-20T05:58:14;99691.03;;;16.56;63.94
55759;BME280;41678;52.126;20.664;2023-07-20T06:03:34;99687.38;;;16.59;63.81
55759;BME280;41678;52.126;20.664;2023-07-20T06:08:54;99682.88;;;16.61;64.65
55759;BME280;41678;52.126;20.664;2023-07-20T06:14:14;99683.06;;;16.56;64.35
55759;BME280;41678;52.126;20.664;2023-07-20T06:19:35;99678.50;;;16.60;64.31
55759;BME280;41678;52.126;20.664;2023-07-20T06:24:54;99669.56;;;16.61;64.43
55759;BME280;41678;52.126;20.664;2023-07-20T06:30:13;99668.63;;;16.62;64.68
55759;BME280;41678;52.126;20.664;2023-07-20T06:35:34;99671.00;;;16.68;64.75
55759;BME280;41678;52.126;20.664;2023-07-20T06:40:54;99669.94;;;16.72;65.24
55759;BME280;41678;52.126;20.664;2023-07-20T06:46:14;99676.88;;;16.75;65.86
55759;BME280;41678;52.126;20.664;2023-07-20T06:51:33;99675.91;;;16.77;66.24
55759;BME280;41678;52.126;20.664;2023-07-20T06:56:52;99684.66;;;16.79;66.78
55759;BME280;41678;52.126;20.664;2023-07-20T07:02:12;99684.66;;;16.79;66.85
55759;BME280;41678;52.126;20.664;2023-07-20T07:07:31;99688.34;;;16.77;66.14
55759;BME280;41678;52.126;20.664;2023-07-20T07:12:52;99692.78;;;16.76;66.96
55759;BME280;41678;52.126;20.664;2023-07-20T07:18:14;99690.19;;;16.75;66.71
55759;BME280;41678;52.126;20.664;2023-07-20T07:23:33;99712.69;;;16.87;67.39
55759;BME280;41678;52.126;20.664;2023-07-20T07:28:53;99709.38;;;16.81;67.44
55759;BME280;41678;52.126;20.664;2023-07-20T07:34:13;99706.81;;;16.80;67.40
55759;BME280;41678;52.126;20.664;2023-07-20T07:39:32;99701.84;;;16.72;67.14
55759;BME280;41678;52.126;20.664;2023-07-20T07:44:52;99710.25;;;16.82;67.45
55759;BME280;41678;52.126;20.664;2023-07-20T07:50:11;99724.97;;;16.89;68.00
55759;BME280;41678;52.126;20.664;2023-07-20T07:55:31;99732.94;;;16.89;67.84
55759;BME280;41678;52.126;20.664;2023-07-20T08:00:50;99730.44;;;16.86;67.88
55759;BME280;41678;52.126;20.664;2023-07-20T08:06:10;99742.44;;;16.95;68.42
55759;BME280;41678;52.126;20.664;2023-07-20T08:11:29;99747.50;;;17.01;68.95
55759;BME280;41678;52.126;20.664;2023-07-20T08:16:50;99754.47;;;17.04;69.21
55759;BME280;41678;52.126;20.664;2023-07-20T08:22:10;99765.19;;;17.02;69.15
55759;BME280;41678;52.126;20.664;2023-07-20T08:27:29;99770.09;;;16.91;68.62
55759;BME280;41678;52.126;20.664;2023-07-20T08:32:49;99778.22;;;16.88;68.47
55759;BME280;41678;52.126;20.664;2023-07-20T08:38:08;99779.50;;;16.98;68.70
55759;BME280;41678;52.126;20.664;2023-07-20T08:43:28;99779.41;;;17.01;69.58
55759;BME280;41678;52.126;20.664;2023-07-20T08:48:49;99789.91;;;17.04;69.29
55759;BME280;41678;52.126;20.664;2023-07-20T08:54:11;99786.38;;;17.04;69.13
55759;BME280;41678;52.126;20.664;2023-07-20T08:59:32;99787.09;;;17.07;70.01
55759;BME280;41678;52.126;20.664;2023-07-20T09:04:51;99796.94;;;17.05;69.95
55759;BME280;41678;52.126;20.664;2023-07-20T09:10:11;99791.63;;;17.05;69.72
55759;BME280;41678;52.126;20.664;2023-07-20T09:15:33;99790.34;;;17.14;70.03
55759;BME280;41678;52.126;20.664;2023-07-20T09:20:52;99791.34;;;17.31;70.45
55759;BME280;41678;52.126;20.664;2023-07-20T09:26:13;99792.84;;;17.36;70.62
55759;BME280;41678;52.126;20.664;2023-07-20T09:31:34;99800.25;;;17.30;70.06
55759;BME280;41678;52.126;20.664;2023-07-20T09:36:54;99801.13;;;17.30;69.64
55759;BME280;41678;52.126;20.664;2023-07-20T09:42:15;99799.72;;;17.40;69.68
55759;BME280;41678;52.126;20.664;2023-07-20T09:47:38;99801.34;;;17.45;69.95
55759;BME280;41678;52.126;20.664;2023-07-20T09:53:00;99801.81;;;17.53;69.99
55759;BME280;41678;52.126;20.664;2023-07-20T09:58:21;99800.09;;;17.52;70.01
55759;BME280;41678;52.126;20.664;2023-07-20T10:03:44;99787.56;;;17.54;69.23
55759;BME280;41678;52.126;20.664;2023-07-20T10:09:04;99778.34;;;17.61;69.44
55759;BME280;41678;52.126;20.664;2023-07-20T10:14:28;99777.97;;;17.69;69.92
55759;BME280;41678;52.126;20.664;2023-07-20T10:19:51;99778.28;;;17.80;70.10
55759;BME280;41678;52.126;20.664;2023-07-20T10:25:13;99772.34;;;17.75;69.99
55759;BME280;41678;52.126;20.664;2023-07-20T10:30:37;99779.00;;;17.84;69.73
55759;BME280;41678;52.126;20.664;2023-07-20T10:36:01;99770.47;;;17.95;69.49
55759;BME280;41678;52.126;20.664;2023-07-20T10:41:29;99759.78;;;18.14;70.30
55759;BME280;41678;52.126;20.664;2023-07-20T10:46:50;99762.91;;;18.22;70.32
55759;BME280;41678;52.126;20.664;2023-07-20T10:52:10;99757.56;;;18.40;70.53
55759;BME280;41678;52.126;20.664;2023-07-20T10:57:31;99756.97;;;18.51;70.30
55759;BME280;41678;52.126;20.664;2023-07-20T11:02:58;99752.72;;;18.64;70.34
55759;BME280;41678;52.126;20.664;2023-07-20T11:08:39;99758.41;;;18.74;69.92
55759;BME280;41678;52.126;20.664;2023-07-20T11:14:01;99754.81;;;18.75;69.92
55759;BME280;41678;52.126;20.664;2023-07-20T11:19:26;99761.78;;;18.78;69.38
55759;BME280;41678;52.126;20.664;2023-07-20T11:24:46;99746.31;;;18.85;69.30
55759;BME280;41678;52.126;20.664;2023-07-20T11:30:15;99729.25;;;18.87;69.37
55759;BME280;41678;52.126;20.664;2023-07-20T11:35:36;99728.69;;;18.98;69.23
55759;BME280;41678;52.126;20.664;2023-07-20T11:41:02;99732.56;;;19.08;69.70
55759;BME280;41678;52.126;20.664;2023-07-20T11:46:23;99744.81;;;19.13;69.71
55759;BME280;41678;52.126;20.664;2023-07-20T11:51:42;99736.63;;;19.16;69.65
55759;BME280;41678;52.126;20.664;2023-07-20T11:57:03;99749.97;;;19.16;69.25
55759;BME280;41678;52.126;20.664;2023-07-20T12:02:23;99765.44;;;19.25;69.42
55759;BME280;41678;52.126;20.664;2023-07-20T12:07:46;99753.69;;;19.29;69.38
55759;BME280;41678;52.126;20.664;2023-07-20T12:13:09;99758.31;;;19.42;69.35
55759;BME280;41678;52.126;20.664;2023-07-20T12:18:34;99753.56;;;19.47;69.18
55759;BME280;41678;52.126;20.664;2023-07-20T12:23:56;99761.03;;;19.56;69.40
55759;BME280;41678;52.126;20.664;2023-07-20T12:29:17;99755.38;;;19.62;69.11
55759;BME280;41678;52.126;20.664;2023-07-20T12:34:37;99765.66;;;19.68;69.07
55759;BME280;41678;52.126;20.664;2023-07-20T12:39:58;99750.72;;;19.66;68.92
55759;BME280;41678;52.126;20.664;2023-07-20T12:45:17;99752.94;;;19.74;69.04
55759;BME280;41678;52.126;20.664;2023-07-20T12:50:38;99717.44;;;19.72;69.11
55759;BME280;41678;52.126;20.664;2023-07-20T12:55:59;99695.41;;;19.68;69.45
55759;BME280;41678;52.126;20.664;2023-07-20T13:01:19;99691.50;;;19.74;69.22
55759;BME280;41678;52.126;20.664;2023-07-20T13:06:38;99688.47;;;19.80;70.00
55759;BME280;41678;52.126;20.664;2023-07-20T13:11:59;99700.03;;;19.80;69.88
55759;BME280;41678;52.126;20.664;2023-07-20T13:17:20;99705.06;;;19.85;69.84
55759;BME280;41678;52.126;20.664;2023-07-20T13:22:43;99700.59;;;19.86;69.84
55759;BME280;41678;52.126;20.664;2023-07-20T13:28:02;99700.88;;;19.81;69.46
55759;BME280;41678;52.126;20.664;2023-07-20T13:33:22;99701.91;;;19.78;69.33
55759;BME280;41678;52.126;20.664;2023-07-20T13:38:42;99709.81;;;19.80;69.42
55759;BME280;41678;52.126;20.664;2023-07-20T13:44:02;99714.31;;;19.79;69.19
55759;BME280;41678;52.126;20.664;2023-07-20T13:49:23;99714.31;;;19.79;69.66
55759;BME280;41678;52.126;20.664;2023-07-20T13:54:42;99708.09;;;19.79;69.30
55759;BME280;41678;52.126;20.664;2023-07-20T14:00:04;99725.09;;;19.78;69.24
55759;BME280;41678;52.126;20.664;2023-07-20T14:05:31;99726.03;;;19.77;69.35
55759;BME280;41678;52.126;20.664;2023-07-20T14:10:51;99714.78;;;19.72;69.22
55759;BME280;41678;52.126;20.664;2023-07-20T14:16:10;99721.22;;;19.67;68.75
55759;BME280;41678;52.126;20.664;2023-07-20T14:21:30;99732.97;;;19.65;69.00
55759;BME280;41678;52.126;20.664;2023-07-20T14:26:50;99734.84;;;19.63;68.94
55759;BME280;41678;52.126;20.664;2023-07-20T14:32:10;99732.47;;;19.58;68.80
55759;BME280;41678;52.126;20.664;2023-07-20T14:37:31;99715.84;;;19.53;68.63
55759;BME280;41678;52.126;20.664;2023-07-20T14:42:50;99714.03;;;19.53;68.67
55759;BME280;41678;52.126;20.664;2023-07-20T14:48:11;99698.88;;;19.54;68.73
55759;BME280;41678;52.126;20.664;2023-07-20T14:53:31;99703.69;;;19.63;68.71
55759;BME280;41678;52.126;20.664;2023-07-20T14:58:50;99713.97;;;19.70;68.73
55759;BME280;41678;52.126;20.664;2023-07-20T15:04:10;99705.22;;;19.67;68.87
55759;BME280;41678;52.126;20.664;2023-07-20T15:09:29;99713.81;;;19.73;68.71
55759;BME280;41678;52.126;20.664;2023-07-20T15:15:07;99725.28;;;19.75;68.49
55759;BME280;41678;52.126;20.664;2023-07-20T15:20:26;99721.03;;;19.71;68.47
55759;BME280;41678;52.126;20.664;2023-07-20T15:25:46;99716.56;;;19.71;67.94
55759;BME280;41678;52.126;20.664;2023-07-20T15:31:06;99714.84;;;19.70;67.98
55759;BME280;41678;52.126;20.664;2023-07-20T15:36:25;99712.25;;;19.68;67.97
55759;BME280;41678;52.126;20.664;2023-07-20T15:41:47;99719.31;;;19.70;67.84
55759;BME280;41678;52.126;20.664;2023-07-20T15:47:07;99719.81;;;19.76;67.93
55759;BME280;41678;52.126;20.664;2023-07-20T15:52:27;99722.41;;;19.78;67.91
55759;BME280;41678;52.126;20.664;2023-07-20T15:57:47;99734.63;;;19.82;67.99
55759;BME280;41678;52.126;20.664;2023-07-20T16:03:07;99744.28;;;19.85;68.06
55759;BME280;41678;52.126;20.664;2023-07-20T16:08:30;99772.63;;;19.87;67.97
55759;BME280;41678;52.126;20.664;2023-07-20T16:13:51;99817.34;;;19.84;65.77
55759;BME280;41678;52.126;20.664;2023-07-20T16:19:13;99839.34;;;19.73;65.73
55759;BME280;41678;52.126;20.664;2023-07-20T16:24:33;99832.47;;;19.52;66.12
55759;BME280;41678;52.126;20.664;2023-07-20T16:29:53;99821.34;;;19.28;67.11
55759;BME280;41678;52.126;20.664;2023-07-20T16:35:15;99813.19;;;18.97;67.48
55759;BME280;41678;52.126;20.664;2023-07-20T16:40:36;99808.66;;;18.66;67.63
55759;BME280;41678;52.126;20.664;2023-07-20T16:46:00;99812.59;;;18.41;68.30
55759;BME280;41678;52.126;20.664;2023-07-20T16:51:20;99794.34;;;18.16;68.09
55759;BME280;41678;52.126;20.664;2023-07-20T16:56:40;99789.81;;;17.98;68.48
55759;BME280;41678;52.126;20.664;2023-07-20T17:02:01;99790.38;;;17.88;68.09
55759;BME280;41678;52.126;20.664;2023-07-20T17:07:21;99813.63;;;17.84;68.91
55759;BME280;41678;52.126;20.664;2023-07-20T17:12:42;99816.09;;;17.69;68.81
55759;BME280;41678;52.126;20.664;2023-07-20T17:18:02;99808.44;;;17.63;69.20
55759;BME280;41678;52.126;20.664;2023-07-20T17:23:22;99809.63;;;17.56;69.75
55759;BME280;41678;52.126;20.664;2023-07-20T17:28:41;99805.72;;;17.46;70.68
55759;BME280;41678;52.126;20.664;2023-07-20T17:34:02;99807.88;;;17.37;69.65
55759;BME280;41678;52.126;20.664;2023-07-20T17:39:22;99807.09;;;17.35;69.61
55759;BME280;41678;52.126;20.664;2023-07-20T17:44:42;99819.09;;;17.25;69.95
55759;BME280;41678;52.126;20.664;2023-07-20T17:50:02;99822.09;;;17.17;69.55
55759;BME280;41678;52.126;20.664;2023-07-20T17:55:22;99815.41;;;17.08;70.19
55759;BME280;41678;52.126;20.664;2023-07-20T18:00:42;99827.00;;;17.07;69.94
55759;BME280;41678;52.126;20.664;2023-07-20T18:06:06;99828.25;;;16.98;69.91
55759;BME280;41678;52.126;20.664;2023-07-20T18:11:26;99824.00;;;16.94;70.17
55759;BME280;41678;52.126;20.664;2023-07-20T18:16:45;99831.41;;;16.88;70.32
55759;BME280;41678;52.126;20.664;2023-07-20T18:22:05;99834.53;;;16.77;69.80
55759;BME280;41678;52.126;20.664;2023-07-20T18:27:25;99840.19;;;16.69;70.26
55759;BME280;41678;52.126;20.664;2023-07-20T18:32:46;99841.34;;;16.63;70.63
55759;BME280;41678;52.126;20.664;2023-07-20T18:38:06;99844.31;;;16.55;70.70
55759;BME280;41678;52.126;20.664;2023-07-20T18:43:26;99856.09;;;16.50;70.58
55759;BME280;41678;52.126;20.664;2023-07-20T18:48:45;99849.38;;;16.41;70.65
55759;BME280;41678;52.126;20.664;2023-07-20T18:54:05;99860.25;;;16.35;70.48
55759;BME280;41678;52.126;20.664;2023-07-20T18:59:24;99860.50;;;16.28;70.76
55759;BME280;41678;52.126;20.664;2023-07-20T19:04:44;99876.69;;;16.22;70.70
55759;BME280;41678;52.126;20.664;2023-07-20T19:10:05;99879.47;;;16.19;70.52
55759;BME280;41678;52.126;20.664;2023-07-20T19:15:25;99879.09;;;16.08;71.05
55759;BME280;41678;52.126;20.664;2023-07-20T19:20:44;99885.69;;;15.97;70.08
55759;BME280;41678;52.126;20.664;2023-07-20T19:26:08;99875.28;;;15.91;70.29
55759;BME280;41678;52.126;20.664;2023-07-20T19:31:28;99890.19;;;15.95;70.79
55759;BME280;41678;52.126;20.664;2023-07-20T19:36:48;99894.09;;;15.85;70.58
55759;BME280;41678;52.126;20.664;2023-07-20T19:42:08;99904.22;;;15.75;70.84
55759;BME280;41678;52.126;20.664;2023-07-20T19:47:28;99887.69;;;15.68;70.37
55759;BME280;41678;52.126;20.664;2023-07-20T19:52:47;99886.06;;;15.64;70.39
55759;BME280;41678;52.126;20.664;2023-07-20T19:58:07;99899.44;;;15.61;70.93
55759;BME280;41678;52.126;20.664;2023-07-20T20:03:27;99904.41;;;15.47;71.09
55759;BME280;41678;52.126;20.664;2023-07-20T20:08:46;99901.97;;;15.42;71.20
55759;BME280;41678;52.126;20.664;2023-07-20T20:14:06;99905.53;;;15.41;70.74
55759;BME280;41678;52.126;20.664;2023-07-20T20:19:25;99901.31;;;15.35;71.07
55759;BME280;41678;52.126;20.664;2023-07-20T20:24:45;99915.59;;;15.31;71.20
55759;BME280;41678;52.126;20.664;2023-07-20T20:36:04;99915.19;;;15.18;71.25
55759;BME280;41678;52.126;20.664;2023-07-20T20:41:25;99908.41;;;15.11;71.13
55759;BME280;41678;52.126;20.664;2023-07-20T20:46:49;99919.94;;;15.10;70.83
55759;BME280;41678;52.126;20.664;2023-07-20T20:52:08;99913.88;;;15.06;70.95
55759;BME280;41678;52.126;20.664;2023-07-20T20:57:28;99924.50;;;15.05;70.95
55759;BME280;41678;52.126;20.664;2023-07-20T21:02:47;99927.31;;;15.00;70.99
55759;BME280;41678;52.126;20.664;2023-07-20T21:08:07;99930.09;;;14.97;71.35
55759;BME280;41678;52.126;20.664;2023-07-20T21:13:27;99928.59;;;14.90;71.22
55759;BME280;41678;52.126;20.664;2023-07-20T21:18:46;99915.44;;;14.86;71.03
55759;BME280;41678;52.126;20.664;2023-07-20T21:24:07;99918.91;;;14.89;70.52
55759;BME280;41678;52.126;20.664;2023-07-20T21:29:26;99935.75;;;14.87;71.01
55759;BME280;41678;52.126;20.664;2023-07-20T21:34:45;99946.50;;;14.83;71.42
55759;BME280;41678;52.126;20.664;2023-07-20T21:40:06;99949.41;;;14.75;71.44
55759;BME280;41678;52.126;20.664;2023-07-20T21:45:26;99953.94;;;14.71;71.72
55759;BME280;41678;52.126;20.664;2023-07-20T21:50:49;99952.16;;;14.72;71.42
55759;BME280;41678;52.126;20.664;2023-07-20T21:56:09;99956.53;;;14.73;71.29
55759;BME280;41678;52.126;20.664;2023-07-20T22:01:28;99961.91;;;14.70;71.69
55759;BME280;41678;52.126;20.664;2023-07-20T22:06:48;99966.25;;;14.72;71.33
55759;BME280;41678;52.126;20.664;2023-07-20T22:12:09;99953.09;;;14.69;71.53
55759;BME280;41678;52.126;20.664;2023-07-20T22:17:32;99962.59;;;14.77;71.68
55759;BME280;41678;52.126;20.664;2023-07-20T22:22:51;99956.53;;;14.73;71.82
55759;BME280;41678;52.126;20.664;2023-07-20T22:28:11;99967.19;;;14.70;71.73
55759;BME280;41678;52.126;20.664;2023-07-20T22:33:31;99955.69;;;14.71;71.50
55759;BME280;41678;52.126;20.664;2023-07-20T22:38:50;99947.75;;;14.71;71.49
55759;BME280;41678;52.126;20.664;2023-07-20T22:44:11;99952.16;;;14.72;71.47
55759;BME280;41678;52.126;20.664;2023-07-20T22:49:30;99948.59;;;14.73;71.50
55759;BME280;41678;52.126;20.664;2023-07-20T22:54:53;99951.25;;;14.73;72.23
55759;BME280;41678;52.126;20.664;2023-07-20T23:00:12;99951.41;;;14.67;72.20
55759;BME280;41678;52.126;20.664;2023-07-20T23:05:33;99965.66;;;14.64;72.19
55759;BME280;41678;52.126;20.664;2023-07-20T23:10:53;99966.53;;;14.63;72.09
55759;BME280;41678;52.126;20.664;2023-07-20T23:16:12;99968.47;;;14.58;72.09
55759;BME280;41678;52.126;20.664;2023-07-20T23:21:32;99971.09;;;14.59;72.14
55759;BME280;41678;52.126;20.664;2023-07-20T23:26:51;99963.31;;;14.53;72.36
55759;BME280;41678;52.126;20.664;2023-07-20T23:32:12;99965.28;;;14.48;72.64
55759;BME280;41678;52.126;20.664;2023-07-20T23:37:36;99968.13;;;14.42;72.41
55759;BME280;41678;52.126;20.664;2023-07-20T23:42:55;99960.44;;;14.34;72.50
55759;BME280;41678;52.126;20.664;2023-07-20T23:48:15;99962.31;;;14.30;72.49
55759;BME280;41678;52.126;20.664;2023-07-20T23:53:36;99962.41;;;14.27;71.93
55759;BME280;41678;52.126;20.664;2023-07-20T23:58:56;99964.28;;;14.24;71.87
